sensor_id;sensor_type;location;lat;lon;timestamp;P1;durP1;ratioP1;P2;durP2;ratioP2
21567;SDS011;10944;42.590;12.630;2022-12-20T00:01:05;35.90;;;21.67;;
21567;SDS011;10944;42.590;12.630;2022-12-20T00:03:34;33.57;;;20.57;;
21567;SDS011;10944;42.590;12.630;2022-12-20T00:06:01;33.37;;;19.47;;
21567;SDS011;10944;42.590;12.630;2022-12-20T00:08:26;29.30;;;18.47;;
21567;SDS011;10944;42.590;12.630;2022-12-20T00:10:52;30.77;;;18.20;;
21567;SDS011;10944;42.590;12.630;2022-12-20T00:13:18;26.47;;;15.87;;
21567;SDS011;10944;42.590;12.630;2022-12-20T00:15:43;22.10;;;13.07;;
21567;SDS011;10944;42.590;12.630;2022-12-20T00:18:09;20.67;;;12.73;;
21567;SDS011;10944;42.590;12.630;2022-12-20T00:20:35;20.07;;;13.23;;
21567;SDS011;10944;42.590;12.630;2022-12-20T00:23:01;21.50;;;12.43;;
21567;SDS011;10944;42.590;12.630;2022-12-20T00:25:27;21.73;;;13.33;;
21567;SDS011;10944;42.590;12.630;2022-12-20T00:27:52;21.43;;;13.13;;
21567;SDS011;10944;42.590;12.630;2022-12-20T00:30:18;21.07;;;12.93;;
21567;SDS011;10944;42.590;12.630;2022-12-20T00:32:44;25.00;;;12.73;;
21567;SDS011;10944;42.590;12.630;2022-12-20T00:35:11;17.53;;;10.53;;
21567;SDS011;10944;42.590;12.630;2022-12-20T00:37:37;15.30;;;8.90;;
21567;SDS011;10944;42.590;12.630;2022-12-20T00:40:03;16.43;;;9.70;;
21567;SDS011;10944;42.590;12.630;2022-12-20T00:42:30;19.33;;;11.67;;
21567;SDS011;10944;42.590;12.630;2022-12-20T00:44:56;22.73;;;12.43;;
21567;SDS011;10944;42.590;12.630;2022-12-20T00:47:21;21.50;;;12.77;;
21567;SDS011;10944;42.590;12.630;2022-12-20T00:49:47;25.77;;;13.10;;
21567;SDS011;10944;42.590;12.630;2022-12-20T00:52:13;14.90;;;9.30;;
21567;SDS011;10944;42.590;12.630;2022-12-20T00:54:38;18.40;;;9.00;;
21567;SDS011;10944;42.590;12.630;2022-12-20T00:57:04;15.30;;;8.27;;
21567;SDS011;10944;42.590;12.630;2022-12-20T00:59:31;11.40;;;7.67;;
21567;SDS011;10944;42.590;12.630;2022-12-20T01:01:58;13.87;;;7.00;;
21567;SDS011;10944;42.590;12.630;2022-12-20T01:04:23;14.93;;;7.73;;
21567;SDS011;10944;42.590;12.630;2022-12-20T01:06:49;11.67;;;6.93;;
21567;SDS011;10944;42.590;12.630;2022-12-20T01:09:15;11.30;;;6.87;;
21567;SDS011;10944;42.590;12.630;2022-12-20T01:11:40;12.27;;;6.77;;
21567;SDS011;10944;42.590;12.630;2022-12-20T01:14:07;9.53;;;6.03;;
21567;SDS011;10944;42.590;12.630;2022-12-20T01:16:37;10.77;;;6.43;;
21567;SDS011;10944;42.590;12.630;2022-12-20T01:19:05;10.73;;;6.07;;
21567;SDS011;10944;42.590;12.630;2022-12-20T01:21:32;9.97;;;6.33;;
21567;SDS011;10944;42.590;12.630;2022-12-20T01:23:58;11.83;;;6.43;;
21567;SDS011;10944;42.590;12.630;2022-12-20T01:26:25;11.30;;;6.43;;
21567;SDS011;10944;42.590;12.630;2022-12-20T01:28:54;13.17;;;6.50;;
21567;SDS011;10944;42.590;12.630;2022-12-20T01:31:21;9.73;;;6.40;;
21567;SDS011;10944;42.590;12.630;2022-12-20T01:33:48;12.43;;;5.67;;
21567;SDS011;10944;42.590;12.630;2022-12-20T01:36:22;9.60;;;6.00;;
21567;SDS011;10944;42.590;12.630;2022-12-20T01:38:50;9.67;;;5.33;;
21567;SDS011;10944;42.590;12.630;2022-12-20T01:41:20;10.80;;;5.70;;
21567;SDS011;10944;42.590;12.630;2022-12-20T01:43:53;11.77;;;6.47;;
21567;SDS011;10944;42.590;12.630;2022-12-20T01:46:20;11.70;;;7.00;;
21567;SDS011;10944;42.590;12.630;2022-12-20T01:51:32;12.33;;;7.47;;
21567;SDS011;10944;42.590;12.630;2022-12-20T01:54:03;17.47;;;8.50;;
21567;SDS011;10944;42.590;12.630;2022-12-20T01:56:32;17.80;;;10.23;;
21567;SDS011;10944;42.590;12.630;2022-12-20T01:58:58;21.33;;;11.90;;
21567;SDS011;10944;42.590;12.630;2022-12-20T02:01:25;20.87;;;12.60;;
21567;SDS011;10944;42.590;12.630;2022-12-20T02:03:51;20.83;;;13.00;;
21567;SDS011;10944;42.590;12.630;2022-12-20T02:06:20;24.90;;;13.93;;
21567;SDS011;10944;42.590;12.630;2022-12-20T02:08:49;23.17;;;14.13;;
21567;SDS011;10944;42.590;12.630;2022-12-20T02:16:56;21.77;;;13.07;;
21567;SDS011;10944;42.590;12.630;2022-12-20T02:31:12;21.93;;;13.40;;
21567;SDS011;10944;42.590;12.630;2022-12-20T02:33:41;21.50;;;12.80;;
21567;SDS011;10944;42.590;12.630;2022-12-20T02:36:13;23.03;;;13.40;;
21567;SDS011;10944;42.590;12.630;2022-12-20T02:38:40;23.17;;;13.30;;
21567;SDS011;10944;42.590;12.630;2022-12-20T02:41:17;22.50;;;13.10;;
21567;SDS011;10944;42.590;12.630;2022-12-20T02:43:53;21.77;;;13.27;;
21567;SDS011;10944;42.590;12.630;2022-12-20T02:46:45;23.37;;;13.90;;
21567;SDS011;10944;42.590;12.630;2022-12-20T02:49:14;22.80;;;14.47;;
21567;SDS011;10944;42.590;12.630;2022-12-20T02:51:43;26.63;;;16.47;;
21567;SDS011;10944;42.590;12.630;2022-12-20T02:54:12;30.70;;;17.33;;
21567;SDS011;10944;42.590;12.630;2022-12-20T02:56:44;26.10;;;16.40;;
21567;SDS011;10944;42.590;12.630;2022-12-20T02:59:13;27.87;;;15.73;;
21567;SDS011;10944;42.590;12.630;2022-12-20T03:01:47;25.83;;;14.87;;
21567;SDS011;10944;42.590;12.630;2022-12-20T03:04:16;23.53;;;14.60;;
21567;SDS011;10944;42.590;12.630;2022-12-20T03:07:04;23.43;;;14.13;;
21567;SDS011;10944;42.590;12.630;2022-12-20T03:09:32;23.93;;;14.93;;
21567;SDS011;10944;42.590;12.630;2022-12-20T03:12:02;25.17;;;15.27;;
21567;SDS011;10944;42.590;12.630;2022-12-20T03:14:29;25.80;;;16.17;;
21567;SDS011;10944;42.590;12.630;2022-12-20T03:16:54;25.20;;;15.47;;
21567;SDS011;10944;42.590;12.630;2022-12-20T03:22:39;26.17;;;15.03;;
21567;SDS011;10944;42.590;12.630;2022-12-20T03:25:06;25.80;;;15.70;;
21567;SDS011;10944;42.590;12.630;2022-12-20T03:27:32;23.20;;;14.77;;
21567;SDS011;10944;42.590;12.630;2022-12-20T03:29:58;26.13;;;16.07;;
21567;SDS011;10944;42.590;12.630;2022-12-20T03:32:24;28.53;;;15.83;;
21567;SDS011;10944;42.590;12.630;2022-12-20T03:34:49;24.33;;;15.93;;
21567;SDS011;10944;42.590;12.630;2022-12-20T03:37:15;23.73;;;15.77;;
21567;SDS011;10944;42.590;12.630;2022-12-20T03:39:41;25.97;;;14.93;;
21567;SDS011;10944;42.590;12.630;2022-12-20T03:42:06;27.10;;;15.60;;
21567;SDS011;10944;42.590;12.630;2022-12-20T03:44:32;24.20;;;14.50;;
21567;SDS011;10944;42.590;12.630;2022-12-20T03:46:58;22.83;;;14.13;;
21567;SDS011;10944;42.590;12.630;2022-12-20T03:49:24;23.47;;;13.87;;
21567;SDS011;10944;42.590;12.630;2022-12-20T03:51:49;22.47;;;13.57;;
21567;SDS011;10944;42.590;12.630;2022-12-20T03:54:15;22.90;;;13.53;;
21567;SDS011;10944;42.590;12.630;2022-12-20T03:56:41;22.73;;;13.93;;
21567;SDS011;10944;42.590;12.630;2022-12-20T03:59:06;22.30;;;13.23;;
21567;SDS011;10944;42.590;12.630;2022-12-20T04:01:32;22.67;;;12.47;;
21567;SDS011;10944;42.590;12.630;2022-12-20T04:04:00;18.10;;;11.60;;
21567;SDS011;10944;42.590;12.630;2022-12-20T04:06:26;21.57;;;12.73;;
21567;SDS011;10944;42.590;12.630;2022-12-20T04:08:52;21.00;;;12.87;;
21567;SDS011;10944;42.590;12.630;2022-12-20T04:11:18;18.90;;;12.10;;
21567;SDS011;10944;42.590;12.630;2022-12-20T04:13:45;20.60;;;12.50;;
21567;SDS011;10944;42.590;12.630;2022-12-20T04:16:13;20.33;;;11.83;;
21567;SDS011;10944;42.590;12.630;2022-12-20T04:18:40;18.33;;;11.87;;
21567;SDS011;10944;42.590;12.630;2022-12-20T04:21:06;20.40;;;11.70;;
21567;SDS011;10944;42.590;12.630;2022-12-20T04:23:33;19.30;;;12.10;;
21567;SDS011;10944;42.590;12.630;2022-12-20T04:26:01;19.80;;;11.57;;
21567;SDS011;10944;42.590;12.630;2022-12-20T04:28:27;19.27;;;11.40;;
21567;SDS011;10944;42.590;12.630;2022-12-20T04:30:54;20.20;;;11.30;;
21567;SDS011;10944;42.590;12.630;2022-12-20T04:33:20;17.80;;;10.90;;
21567;SDS011;10944;42.590;12.630;2022-12-20T04:35:46;15.90;;;10.30;;
21567;SDS011;10944;42.590;12.630;2022-12-20T04:38:12;17.03;;;10.30;;
21567;SDS011;10944;42.590;12.630;2022-12-20T04:40:37;18.43;;;10.90;;
21567;SDS011;10944;42.590;12.630;2022-12-20T04:43:03;17.80;;;10.87;;
21567;SDS011;10944;42.590;12.630;2022-12-20T04:45:29;19.53;;;11.37;;
21567;SDS011;10944;42.590;12.630;2022-12-20T04:47:55;17.33;;;11.20;;
21567;SDS011;10944;42.590;12.630;2022-12-20T04:50:20;19.10;;;10.90;;
21567;SDS011;10944;42.590;12.630;2022-12-20T04:52:46;20.07;;;11.30;;
21567;SDS011;10944;42.590;12.630;2022-12-20T04:55:30;17.80;;;11.63;;
21567;SDS011;10944;42.590;12.630;2022-12-20T04:58:00;15.20;;;10.20;;
21567;SDS011;10944;42.590;12.630;2022-12-20T05:00:26;18.13;;;11.60;;
21567;SDS011;10944;42.590;12.630;2022-12-20T05:02:51;17.50;;;10.70;;
21567;SDS011;10944;42.590;12.630;2022-12-20T05:05:17;19.63;;;10.77;;
21567;SDS011;10944;42.590;12.630;2022-12-20T05:07:43;17.47;;;11.60;;
21567;SDS011;10944;42.590;12.630;2022-12-20T05:10:09;20.87;;;11.03;;
21567;SDS011;10944;42.590;12.630;2022-12-20T05:12:35;18.07;;;11.63;;
21567;SDS011;10944;42.590;12.630;2022-12-20T05:15:00;23.20;;;11.77;;
21567;SDS011;10944;42.590;12.630;2022-12-20T05:17:26;19.47;;;11.83;;
21567;SDS011;10944;42.590;12.630;2022-12-20T05:19:52;18.70;;;11.83;;
21567;SDS011;10944;42.590;12.630;2022-12-20T05:22:17;22.30;;;12.03;;
21567;SDS011;10944;42.590;12.630;2022-12-20T05:25:02;18.10;;;11.37;;
21567;SDS011;10944;42.590;12.630;2022-12-20T05:27:46;19.77;;;11.43;;
21567;SDS011;10944;42.590;12.630;2022-12-20T05:30:12;18.90;;;11.53;;
21567;SDS011;10944;42.590;12.630;2022-12-20T05:32:40;16.80;;;11.43;;
21567;SDS011;10944;42.590;12.630;2022-12-20T05:35:05;18.80;;;11.87;;
21567;SDS011;10944;42.590;12.630;2022-12-20T05:37:32;19.33;;;11.63;;
21567;SDS011;10944;42.590;12.630;2022-12-20T05:39:57;20.03;;;12.33;;
21567;SDS011;10944;42.590;12.630;2022-12-20T05:42:23;22.23;;;12.80;;
21567;SDS011;10944;42.590;12.630;2022-12-20T05:44:49;22.33;;;13.20;;
21567;SDS011;10944;42.590;12.630;2022-12-20T05:47:15;23.40;;;14.10;;
21567;SDS011;10944;42.590;12.630;2022-12-20T05:49:41;22.20;;;13.20;;
21567;SDS011;10944;42.590;12.630;2022-12-20T05:52:07;24.50;;;14.10;;
21567;SDS011;10944;42.590;12.630;2022-12-20T05:54:32;22.37;;;13.70;;
21567;SDS011;10944;42.590;12.630;2022-12-20T05:56:58;21.83;;;13.47;;
21567;SDS011;10944;42.590;12.630;2022-12-20T06:02:18;22.37;;;12.83;;
21567;SDS011;10944;42.590;12.630;2022-12-20T06:04:44;24.90;;;14.10;;
21567;SDS011;10944;42.590;12.630;2022-12-20T06:07:10;25.50;;;14.20;;
21567;SDS011;10944;42.590;12.630;2022-12-20T06:09:35;23.80;;;14.40;;
21567;SDS011;10944;42.590;12.630;2022-12-20T06:12:01;22.07;;;13.53;;
21567;SDS011;10944;42.590;12.630;2022-12-20T06:14:30;20.57;;;12.70;;
21567;SDS011;10944;42.590;12.630;2022-12-20T06:16:55;20.73;;;13.23;;
21567;SDS011;10944;42.590;12.630;2022-12-20T06:19:21;20.60;;;12.60;;
21567;SDS011;10944;42.590;12.630;2022-12-20T06:21:47;25.50;;;13.13;;
21567;SDS011;10944;42.590;12.630;2022-12-20T06:24:13;24.93;;;13.80;;
21567;SDS011;10944;42.590;12.630;2022-12-20T06:26:38;22.87;;;13.57;;
21567;SDS011;10944;42.590;12.630;2022-12-20T06:29:04;24.53;;;14.80;;
21567;SDS011;10944;42.590;12.630;2022-12-20T06:31:38;29.33;;;15.80;;
21567;SDS011;10944;42.590;12.630;2022-12-20T06:34:04;23.77;;;15.37;;
21567;SDS011;10944;42.590;12.630;2022-12-20T06:36:30;26.63;;;16.30;;
21567;SDS011;10944;42.590;12.630;2022-12-20T06:38:56;26.20;;;15.77;;
21567;SDS011;10944;42.590;12.630;2022-12-20T06:41:21;26.23;;;15.73;;
21567;SDS011;10944;42.590;12.630;2022-12-20T06:43:47;24.60;;;15.33;;
21567;SDS011;10944;42.590;12.630;2022-12-20T06:46:13;25.97;;;15.30;;
21567;SDS011;10944;42.590;12.630;2022-12-20T06:48:38;22.23;;;13.90;;
21567;SDS011;10944;42.590;12.630;2022-12-20T06:51:04;23.07;;;13.00;;
21567;SDS011;10944;42.590;12.630;2022-12-20T06:53:30;21.77;;;11.63;;
21567;SDS011;10944;42.590;12.630;2022-12-20T06:55:56;17.80;;;9.70;;
21567;SDS011;10944;42.590;12.630;2022-12-20T06:58:21;17.33;;;10.43;;
21567;SDS011;10944;42.590;12.630;2022-12-20T07:00:47;16.40;;;9.40;;
21567;SDS011;10944;42.590;12.630;2022-12-20T07:03:13;13.00;;;7.37;;
21567;SDS011;10944;42.590;12.630;2022-12-20T07:05:39;11.73;;;7.00;;
21567;SDS011;10944;42.590;12.630;2022-12-20T07:08:05;12.00;;;7.10;;
21567;SDS011;10944;42.590;12.630;2022-12-20T07:10:34;12.73;;;7.47;;
21567;SDS011;10944;42.590;12.630;2022-12-20T07:13:01;14.47;;;8.57;;
21567;SDS011;10944;42.590;12.630;2022-12-20T07:15:27;17.57;;;10.83;;
21567;SDS011;10944;42.590;12.630;2022-12-20T07:17:53;20.57;;;12.10;;
21567;SDS011;10944;42.590;12.630;2022-12-20T07:20:18;19.57;;;12.10;;
21567;SDS011;10944;42.590;12.630;2022-12-20T07:22:47;19.33;;;11.60;;
21567;SDS011;10944;42.590;12.630;2022-12-20T07:25:13;21.00;;;12.43;;
21567;SDS011;10944;42.590;12.630;2022-12-20T07:27:39;23.33;;;12.47;;
21567;SDS011;10944;42.590;12.630;2022-12-20T07:30:05;22.77;;;13.10;;
21567;SDS011;10944;42.590;12.630;2022-12-20T07:32:31;24.23;;;15.50;;
21567;SDS011;10944;42.590;12.630;2022-12-20T07:34:57;22.17;;;15.13;;
21567;SDS011;10944;42.590;12.630;2022-12-20T07:37:23;21.60;;;13.63;;
21567;SDS011;10944;42.590;12.630;2022-12-20T07:39:48;22.23;;;13.10;;
21567;SDS011;10944;42.590;12.630;2022-12-20T07:42:14;31.33;;;20.13;;
21567;SDS011;10944;42.590;12.630;2022-12-20T07:44:40;31.33;;;19.33;;
21567;SDS011;10944;42.590;12.630;2022-12-20T07:47:06;28.57;;;17.97;;
21567;SDS011;10944;42.590;12.630;2022-12-20T07:52:49;39.87;;;23.97;;
21567;SDS011;10944;42.590;12.630;2022-12-20T07:55:15;36.87;;;22.73;;
21567;SDS011;10944;42.590;12.630;2022-12-20T07:57:43;31.50;;;19.93;;
21567;SDS011;10944;42.590;12.630;2022-12-20T08:00:13;36.77;;;22.17;;
21567;SDS011;10944;42.590;12.630;2022-12-20T08:03:02;43.23;;;26.53;;
21567;SDS011;10944;42.590;12.630;2022-12-20T08:05:25;34.27;;;20.87;;
21567;SDS011;10944;42.590;12.630;2022-12-20T08:07:52;32.70;;;19.90;;
21567;SDS011;10944;42.590;12.630;2022-12-20T08:10:20;30.77;;;19.20;;
21567;SDS011;10944;42.590;12.630;2022-12-20T08:12:47;42.60;;;26.87;;
21567;SDS011;10944;42.590;12.630;2022-12-20T08:15:13;78.40;;;50.87;;
21567;SDS011;10944;42.590;12.630;2022-12-20T08:17:39;56.10;;;34.80;;
21567;SDS011;10944;42.590;12.630;2022-12-20T08:20:05;46.53;;;30.07;;
21567;SDS011;10944;42.590;12.630;2022-12-20T08:25:29;63.40;;;37.53;;
21567;SDS011;10944;42.590;12.630;2022-12-20T08:27:55;49.67;;;32.80;;
21567;SDS011;10944;42.590;12.630;2022-12-20T08:30:21;44.87;;;28.67;;
21567;SDS011;10944;42.590;12.630;2022-12-20T08:32:46;44.77;;;28.23;;
21567;SDS011;10944;42.590;12.630;2022-12-20T08:35:12;45.57;;;28.30;;
21567;SDS011;10944;42.590;12.630;2022-12-20T08:37:38;47.63;;;29.53;;
21567;SDS011;10944;42.590;12.630;2022-12-20T08:40:04;50.70;;;30.57;;
21567;SDS011;10944;42.590;12.630;2022-12-20T08:42:31;56.07;;;33.90;;
21567;SDS011;10944;42.590;12.630;2022-12-20T08:44:57;61.80;;;36.60;;
21567;SDS011;10944;42.590;12.630;2022-12-20T08:47:22;60.60;;;35.03;;
21567;SDS011;10944;42.590;12.630;2022-12-20T08:49:48;59.00;;;34.93;;
21567;SDS011;10944;42.590;12.630;2022-12-20T08:52:14;68.80;;;38.77;;
21567;SDS011;10944;42.590;12.630;2022-12-20T08:54:39;54.67;;;33.63;;
21567;SDS011;10944;42.590;12.630;2022-12-20T08:57:05;56.33;;;34.90;;
21567;SDS011;10944;42.590;12.630;2022-12-20T08:59:31;128.17;;;59.43;;
21567;SDS011;10944;42.590;12.630;2022-12-20T09:01:56;59.33;;;33.77;;
21567;SDS011;10944;42.590;12.630;2022-12-20T09:04:22;47.97;;;30.40;;
21567;SDS011;10944;42.590;12.630;2022-12-20T09:06:48;51.67;;;30.73;;
21567;SDS011;10944;42.590;12.630;2022-12-20T09:09:13;52.13;;;34.47;;
21567;SDS011;10944;42.590;12.630;2022-12-20T09:11:40;52.13;;;32.77;;
21567;SDS011;10944;42.590;12.630;2022-12-20T09:14:06;47.03;;;30.20;;
21567;SDS011;10944;42.590;12.630;2022-12-20T09:16:32;55.97;;;35.83;;
21567;SDS011;10944;42.590;12.630;2022-12-20T09:18:59;47.27;;;32.37;;
21567;SDS011;10944;42.590;12.630;2022-12-20T09:21:25;52.67;;;32.10;;
21567;SDS011;10944;42.590;12.630;2022-12-20T09:23:52;50.33;;;30.97;;
21567;SDS011;10944;42.590;12.630;2022-12-20T09:26:19;55.43;;;33.33;;
21567;SDS011;10944;42.590;12.630;2022-12-20T09:28:47;63.30;;;34.17;;
21567;SDS011;10944;42.590;12.630;2022-12-20T09:31:14;65.03;;;36.97;;
21567;SDS011;10944;42.590;12.630;2022-12-20T09:33:44;59.53;;;34.60;;
21567;SDS011;10944;42.590;12.630;2022-12-20T09:36:14;70.00;;;39.57;;
21567;SDS011;10944;42.590;12.630;2022-12-20T09:38:44;70.23;;;37.43;;
21567;SDS011;10944;42.590;12.630;2022-12-20T09:41:19;65.43;;;36.93;;
21567;SDS011;10944;42.590;12.630;2022-12-20T09:43:52;63.00;;;34.53;;
21567;SDS011;10944;42.590;12.630;2022-12-20T09:46:20;65.87;;;37.10;;
21567;SDS011;10944;42.590;12.630;2022-12-20T09:48:46;59.10;;;34.70;;
21567;SDS011;10944;42.590;12.630;2022-12-20T09:59:19;68.13;;;36.90;;
21567;SDS011;10944;42.590;12.630;2022-12-20T10:01:45;67.40;;;37.20;;
21567;SDS011;10944;42.590;12.630;2022-12-20T10:22:58;58.80;;;35.57;;
21567;SDS011;10944;42.590;12.630;2022-12-20T10:25:30;61.07;;;35.47;;
21567;SDS011;10944;42.590;12.630;2022-12-20T10:27:59;63.03;;;35.47;;
21567;SDS011;10944;42.590;12.630;2022-12-20T10:30:28;56.00;;;34.67;;
21567;SDS011;10944;42.590;12.630;2022-12-20T10:32:56;61.13;;;37.70;;
21567;SDS011;10944;42.590;12.630;2022-12-20T10:35:27;56.63;;;34.03;;
21567;SDS011;10944;42.590;12.630;2022-12-20T10:38:13;55.73;;;36.17;;
21567;SDS011;10944;42.590;12.630;2022-12-20T10:40:43;62.10;;;37.20;;
21567;SDS011;10944;42.590;12.630;2022-12-20T10:43:34;58.50;;;35.37;;
21567;SDS011;10944;42.590;12.630;2022-12-20T10:46:07;52.97;;;33.67;;
21567;SDS011;10944;42.590;12.630;2022-12-20T10:48:37;53.00;;;33.40;;
21567;SDS011;10944;42.590;12.630;2022-12-20T10:53:34;55.80;;;33.80;;
21567;SDS011;10944;42.590;12.630;2022-12-20T10:56:24;49.97;;;33.03;;
21567;SDS011;10944;42.590;12.630;2022-12-20T10:59:02;50.57;;;32.40;;
21567;SDS011;10944;42.590;12.630;2022-12-20T11:01:42;53.00;;;33.30;;
21567;SDS011;10944;42.590;12.630;2022-12-20T11:06:56;50.23;;;32.30;;
21567;SDS011;10944;42.590;12.630;2022-12-20T11:09:27;48.90;;;31.97;;
21567;SDS011;10944;42.590;12.630;2022-12-20T11:12:12;51.57;;;32.83;;
21567;SDS011;10944;42.590;12.630;2022-12-20T11:14:40;54.63;;;32.50;;
21567;SDS011;10944;42.590;12.630;2022-12-20T11:30:06;53.40;;;33.27;;
21567;SDS011;10944;42.590;12.630;2022-12-20T11:35:57;54.83;;;34.70;;
21567;SDS011;10944;42.590;12.630;2022-12-20T11:38:41;51.90;;;32.90;;
21567;SDS011;10944;42.590;12.630;2022-12-20T11:42:15;52.33;;;34.33;;
21567;SDS011;10944;42.590;12.630;2022-12-20T11:46:51;49.63;;;33.20;;
21567;SDS011;10944;42.590;12.630;2022-12-20T11:49:40;49.30;;;32.27;;
21567;SDS011;10944;42.590;12.630;2022-12-20T11:52:21;48.87;;;32.07;;
21567;SDS011;10944;42.590;12.630;2022-12-20T12:00:26;49.93;;;31.33;;
21567;SDS011;10944;42.590;12.630;2022-12-20T12:03:00;47.50;;;32.13;;
21567;SDS011;10944;42.590;12.630;2022-12-20T12:05:44;50.40;;;31.93;;
21567;SDS011;10944;42.590;12.630;2022-12-20T12:08:23;52.23;;;33.50;;
21567;SDS011;10944;42.590;12.630;2022-12-20T12:10:57;49.07;;;32.67;;
21567;SDS011;10944;42.590;12.630;2022-12-20T12:13:27;49.30;;;32.97;;
21567;SDS011;10944;42.590;12.630;2022-12-20T12:16:11;51.70;;;34.33;;
21567;SDS011;10944;42.590;12.630;2022-12-20T12:18:44;56.10;;;34.97;;
21567;SDS011;10944;42.590;12.630;2022-12-20T12:21:13;50.93;;;33.37;;
21567;SDS011;10944;42.590;12.630;2022-12-20T12:26:51;53.00;;;35.73;;
21567;SDS011;10944;42.590;12.630;2022-12-20T12:29:17;54.03;;;34.97;;
21567;SDS011;10944;42.590;12.630;2022-12-20T12:32:05;51.70;;;34.70;;
21567;SDS011;10944;42.590;12.630;2022-12-20T12:45:48;54.05;;;35.85;;
21567;SDS011;10944;42.590;12.630;2022-12-20T12:48:35;52.00;;;35.23;;
21567;SDS011;10944;42.590;12.630;2022-12-20T12:51:10;57.40;;;36.88;;
21567;SDS011;10944;42.590;12.630;2022-12-20T12:53:48;55.30;;;36.28;;
21567;SDS011;10944;42.590;12.630;2022-12-20T13:11:49;52.33;;;35.25;;
21567;SDS011;10944;42.590;12.630;2022-12-20T13:16:43;52.65;;;33.47;;
21567;SDS011;10944;42.590;12.630;2022-12-20T13:19:16;54.38;;;34.55;;
21567;SDS011;10944;42.590;12.630;2022-12-20T13:37:54;52.92;;;34.60;;
21567;SDS011;10944;42.590;12.630;2022-12-20T13:48:17;48.05;;;32.10;;
21567;SDS011;10944;42.590;12.630;2022-12-20T13:50:53;46.85;;;32.47;;
21567;SDS011;10944;42.590;12.630;2022-12-20T13:53:25;49.17;;;32.70;;
21567;SDS011;10944;42.590;12.630;2022-12-20T13:55:51;49.05;;;32.42;;
21567;SDS011;10944;42.590;12.630;2022-12-20T13:58:19;47.83;;;31.38;;
21567;SDS011;10944;42.590;12.630;2022-12-20T14:00:50;46.70;;;30.95;;
21567;SDS011;10944;42.590;12.630;2022-12-20T14:06:02;41.30;;;27.15;;
21567;SDS011;10944;42.590;12.630;2022-12-20T14:08:33;41.13;;;26.30;;
21567;SDS011;10944;42.590;12.630;2022-12-20T14:13:56;44.10;;;29.25;;
21567;SDS011;10944;42.590;12.630;2022-12-20T14:16:25;46.80;;;29.27;;
21567;SDS011;10944;42.590;12.630;2022-12-20T14:21:21;48.55;;;31.00;;
21567;SDS011;10944;42.590;12.630;2022-12-20T14:23:47;46.28;;;31.23;;
21567;SDS011;10944;42.590;12.630;2022-12-20T14:26:21;45.75;;;30.67;;
21567;SDS011;10944;42.590;12.630;2022-12-20T14:28:50;69.80;;;46.50;;
21567;SDS011;10944;42.590;12.630;2022-12-20T14:31:23;65.57;;;43.22;;
21567;SDS011;10944;42.590;12.630;2022-12-20T14:33:49;53.75;;;33.83;;
21567;SDS011;10944;42.590;12.630;2022-12-20T14:36:17;51.25;;;35.03;;
21567;SDS011;10944;42.590;12.630;2022-12-20T14:38:46;52.28;;;34.05;;
21567;SDS011;10944;42.590;12.630;2022-12-20T14:41:27;52.55;;;35.03;;
21567;SDS011;10944;42.590;12.630;2022-12-20T14:44:03;53.38;;;35.50;;
21567;SDS011;10944;42.590;12.630;2022-12-20T14:46:45;49.50;;;34.42;;
21567;SDS011;10944;42.590;12.630;2022-12-20T14:49:31;51.97;;;34.30;;
21567;SDS011;10944;42.590;12.630;2022-12-20T14:54:43;48.03;;;33.13;;
21567;SDS011;10944;42.590;12.630;2022-12-20T15:10:46;49.35;;;32.60;;
21567;SDS011;10944;42.590;12.630;2022-12-20T15:13:32;49.53;;;32.28;;
21567;SDS011;10944;42.590;12.630;2022-12-20T15:16:00;48.73;;;32.13;;
21567;SDS011;10944;42.590;12.630;2022-12-20T15:18:28;47.45;;;32.63;;
21567;SDS011;10944;42.590;12.630;2022-12-20T15:20:59;47.97;;;32.13;;
21567;SDS011;10944;42.590;12.630;2022-12-20T15:23:28;47.53;;;32.17;;
21567;SDS011;10944;42.590;12.630;2022-12-20T15:25:55;52.20;;;31.87;;
21567;SDS011;10944;42.590;12.630;2022-12-20T15:28:22;48.77;;;32.50;;
21567;SDS011;10944;42.590;12.630;2022-12-20T15:30:50;46.97;;;31.90;;
21567;SDS011;10944;42.590;12.630;2022-12-20T15:33:20;46.07;;;31.50;;
21567;SDS011;10944;42.590;12.630;2022-12-20T15:35:47;53.60;;;32.83;;
21567;SDS011;10944;42.590;12.630;2022-12-20T15:38:22;53.40;;;32.10;;
21567;SDS011;10944;42.590;12.630;2022-12-20T15:40:53;49.47;;;30.93;;
21567;SDS011;10944;42.590;12.630;2022-12-20T15:43:24;45.33;;;30.47;;
21567;SDS011;10944;42.590;12.630;2022-12-20T15:45:51;44.27;;;27.47;;
21567;SDS011;10944;42.590;12.630;2022-12-20T15:48:21;45.20;;;27.33;;
21567;SDS011;10944;42.590;12.630;2022-12-20T15:50:52;42.27;;;27.00;;
21567;SDS011;10944;42.590;12.630;2022-12-20T15:53:21;40.57;;;26.53;;
21567;SDS011;10944;42.590;12.630;2022-12-20T15:56:07;41.40;;;27.00;;
21567;SDS011;10944;42.590;12.630;2022-12-20T15:58:49;42.73;;;28.43;;
21567;SDS011;10944;42.590;12.630;2022-12-20T16:01:24;51.37;;;31.83;;
21567;SDS011;10944;42.590;12.630;2022-12-20T16:03:54;55.37;;;35.97;;
21567;SDS011;10944;42.590;12.630;2022-12-20T16:06:19;52.77;;;33.83;;
21567;SDS011;10944;42.590;12.630;2022-12-20T16:08:45;50.47;;;31.67;;
21567;SDS011;10944;42.590;12.630;2022-12-20T16:11:44;38.60;;;25.03;;
21567;SDS011;10944;42.590;12.630;2022-12-20T16:14:03;35.47;;;21.07;;
21567;SDS011;10944;42.590;12.630;2022-12-20T16:16:31;30.97;;;21.27;;
21567;SDS011;10944;42.590;12.630;2022-12-20T16:18:58;37.67;;;24.60;;
21567;SDS011;10944;42.590;12.630;2022-12-20T16:21:36;36.20;;;24.37;;
21567;SDS011;10944;42.590;12.630;2022-12-20T16:24:10;49.77;;;30.00;;
21567;SDS011;10944;42.590;12.630;2022-12-20T16:26:37;46.33;;;29.20;;
21567;SDS011;10944;42.590;12.630;2022-12-20T16:29:03;40.77;;;26.87;;
21567;SDS011;10944;42.590;12.630;2022-12-20T16:31:30;37.67;;;24.63;;
21567;SDS011;10944;42.590;12.630;2022-12-20T16:33:58;45.23;;;29.43;;
21567;SDS011;10944;42.590;12.630;2022-12-20T16:36:26;48.40;;;32.07;;
21567;SDS011;10944;42.590;12.630;2022-12-20T16:38:53;43.37;;;28.47;;
21567;SDS011;10944;42.590;12.630;2022-12-20T16:41:26;35.93;;;24.10;;
21567;SDS011;10944;42.590;12.630;2022-12-20T16:43:54;34.90;;;22.27;;
21567;SDS011;10944;42.590;12.630;2022-12-20T16:46:21;40.57;;;26.37;;
21567;SDS011;10944;42.590;12.630;2022-12-20T16:48:50;47.17;;;28.90;;
21567;SDS011;10944;42.590;12.630;2022-12-20T16:53:51;56.40;;;33.70;;
21567;SDS011;10944;42.590;12.630;2022-12-20T16:56:18;56.17;;;33.10;;
21567;SDS011;10944;42.590;12.630;2022-12-20T16:58:43;56.87;;;33.40;;
21567;SDS011;10944;42.590;12.630;2022-12-20T17:01:16;84.73;;;45.43;;
21567;SDS011;10944;42.590;12.630;2022-12-20T17:03:44;77.67;;;43.57;;
21567;SDS011;10944;42.590;12.630;2022-12-20T17:06:11;68.40;;;39.50;;
21567;SDS011;10944;42.590;12.630;2022-12-20T17:08:38;58.63;;;36.23;;
21567;SDS011;10944;42.590;12.630;2022-12-20T17:11:20;50.07;;;32.50;;
21567;SDS011;10944;42.590;12.630;2022-12-20T17:13:48;46.80;;;30.33;;